Time;durP1;ratioP1;P1;durP2;ratioP2;P2;SDS_P1;SDS_P2;PMS_P1;PMS_P2;Temp;Humidity;BMP_temperature;BMP_pressure;BME280_temperature;BME280_humidity;BME280_pressure;Samples;Min_cycle;Max_cycle;Signal;HPM_P1;HPM_P2
2022/09/24 00:01:56;;;;;;;;;;;22.00;43.80;;;;;;486939;244;1218;-74
2022/09/24 00:03:58;;;;;;;;;;;22.00;43.90;;;;;;486771;245;1238;-74
2022/09/24 00:05:59;;;;;;;;;;;22.00;43.90;;;;;;486866;245;1154;-74
2022/09/24 00:08:00;;;;;;;;;;;22.10;44.00;;;;;;486920;244;1228;-74
2022/09/24 00:10:02;;;;;;;;;;;22.00;44.00;;;;;;486813;245;1193;-74
2022/09/24 00:12:03;;;;;;;;;;;22.00;44.00;;;;;;486857;244;1247;-74
2022/09/24 00:14:05;;;;;;;;;;;21.90;44.00;;;;;;486799;244;2202;-74
2022/09/24 00:16:06;;;;;;;;;;;21.90;44.10;;;;;;486888;244;1348;-74
2022/09/24 00:18:08;;;;;;;;;;;22.00;44.00;;;;;;486809;245;1202;-74
2022/09/24 00:20:09;;;;;;;;;;;22.00;44.00;;;;;;486859;245;1410;-74
2022/09/24 00:22:10;;;;;;;;;;;22.00;44.10;;;;;;486811;245;1226;-74
2022/09/24 00:26:48;;;;;;;;;;;21.90;44.10;;;;;;486770;245;1149;-74
2022/09/24 00:28:32;;;;;;;;;;;21.90;44.20;;;;;;486917;245;1222;-74
2022/09/24 00:30:33;;;;;;;;;;;21.80;44.30;;;;;;486762;245;1238;-74
2022/09/24 00:32:35;;;;;;;;;;;21.80;44.20;;;;;;486831;245;2198;-74
2022/09/24 00:34:36;;;;;;;;;;;21.80;44.30;;;;;;486789;245;1254;-74
2022/09/24 00:36:37;;;;;;;;;;;21.80;44.30;;;;;;486866;244;1165;-74
2022/09/24 00:38:39;;;;;;;;;;;21.80;44.30;;;;;;486898;244;1236;-74
2022/09/24 00:40:40;;;;;;;;;;;21.80;44.30;;;;;;486900;245;1207;-74
2022/09/24 00:42:41;;;;;;;;;;;21.80;44.30;;;;;;487058;244;1172;-74
2022/09/24 00:44:43;;;;;;;;;;;21.80;44.20;;;;;;486857;245;1175;-75
2022/09/24 00:46:44;;;;;;;;;;;21.80;44.30;;;;;;486810;245;1129;-74
2022/09/24 00:48:46;;;;;;;;;;;21.80;44.20;;;;;;486926;245;1229;-74
2022/09/24 00:50:47;;;;;;;;;;;21.80;44.30;;;;;;486752;245;1146;-74
2022/09/24 00:52:48;;;;;;;;;;;21.80;44.20;;;;;;486778;245;2202;-74
2022/09/24 00:54:50;;;;;;;;;;;21.90;44.20;;;;;;486905;244;1141;-74
2022/09/24 00:56:51;;;;;;;;;;;21.90;44.20;;;;;;486895;244;1250;-74
2022/09/24 00:58:52;;;;;;;;;;;21.90;44.20;;;;;;486810;245;1216;-74
2022/09/24 01:00:53;;;;;;;;;;;21.90;44.10;;;;;;486794;245;1154;-74
2022/09/24 01:02:55;;;;;;;;;;;21.90;44.10;;;;;;486800;245;1231;-74
2022/09/24 01:04:56;;;;;;;;;;;21.90;44.10;;;;;;486856;245;1172;-74
2022/09/24 01:06:58;;;;;;;;;;;21.90;44.20;;;;;;486934;244;1206;-74
2022/09/24 01:08:59;;;;;;;;;;;21.90;44.30;;;;;;486858;245;1313;-74
2022/09/24 01:11:00;;;;;;;;;;;21.80;44.20;;;;;;486837;244;1196;-74
2022/09/24 01:13:01;;;;;;;;;;;21.80;44.40;;;;;;486739;245;2202;-74
2022/09/24 01:15:03;;;;;;;;;;;21.80;44.30;;;;;;486823;244;1177;-74
2022/09/24 01:17:04;;;;;;;;;;;21.80;44.40;;;;;;486646;244;1142;-74
2022/09/24 01:19:06;;;;;;;;;;;21.90;44.20;;;;;;486806;245;1239;-74
2022/09/24 01:21:07;;;;;;;;;;;21.80;44.30;;;;;;486759;244;1169;-74
2022/09/24 01:23:09;;;;;;;;;;;21.80;44.20;;;;;;486796;245;1265;-74
2022/09/24 01:25:10;;;;;;;;;;;21.80;44.20;;;;;;486956;245;1508;-74
2022/09/24 01:27:11;;;;;;;;;;;21.90;44.30;;;;;;486693;245;1173;-74
2022/09/24 01:29:13;;;;;;;;;;;21.90;44.20;;;;;;486806;245;1140;-74
2022/09/24 01:31:14;;;;;;;;;;;21.90;44.10;;;;;;486937;245;1283;-74
2022/09/24 01:33:15;;;;;;;;;;;22.00;44.10;;;;;;487010;244;2162;-74
2022/09/24 01:35:17;;;;;;;;;;;21.90;44.20;;;;;;487026;244;1259;-74
2022/09/24 01:37:18;;;;;;;;;;;21.90;44.30;;;;;;486945;244;1149;-74
2022/09/24 01:39:19;;;;;;;;;;;21.90;44.20;;;;;;486804;245;1175;-74
2022/09/24 01:41:21;;;;;;;;;;;21.90;44.20;;;;;;487220;244;1116;-74
2022/09/24 01:43:22;;;;;;;;;;;21.90;44.20;;;;;;486917;244;1096;-74
2022/09/24 01:45:23;;;;;;;;;;;21.90;44.20;;;;;;486799;244;1144;-74
2022/09/24 01:47:25;;;;;;;;;;;21.80;44.10;;;;;;486805;245;1162;-74
2022/09/24 01:49:26;;;;;;;;;;;21.80;44.30;;;;;;486795;245;1159;-74
2022/09/24 01:51:27;;;;;;;;;;;21.90;44.20;;;;;;486962;244;1159;-74
2022/09/24 01:53:29;;;;;;;;;;;21.80;44.20;;;;;;486935;244;2186;-74
2022/09/24 01:55:31;;;;;;;;;;;21.80;44.30;;;;;;486874;244;1223;-74
2022/09/24 01:57:31;;;;;;;;;;;21.80;44.20;;;;;;486871;245;1461;-74
2022/09/24 01:59:33;;;;;;;;;;;21.90;44.20;;;;;;486809;245;1459;-74
2022/09/24 02:01:34;;;;;;;;;;;21.80;44.20;;;;;;486954;245;1130;-74
2022/09/24 02:03:35;;;;;;;;;;;21.80;44.20;;;;;;486823;245;1169;-74
2022/09/24 02:05:37;;;;;;;;;;;21.80;44.10;;;;;;486874;245;1235;-74
2022/09/24 02:07:39;;;;;;;;;;;21.90;44.20;;;;;;486803;245;1149;-74
2022/09/24 02:09:40;;;;;;;;;;;21.80;44.20;;;;;;486782;245;1144;-74
2022/09/24 02:11:42;;;;;;;;;;;21.80;44.10;;;;;;486922;244;1159;-74
2022/09/24 02:13:43;;;;;;;;;;;21.80;44.10;;;;;;486793;245;2198;-74
2022/09/24 02:15:44;;;;;;;;;;;21.80;44.10;;;;;;486796;245;1583;-74
2022/09/24 02:17:45;;;;;;;;;;;21.80;44.10;;;;;;486819;244;1102;-74
2022/09/24 02:19:47;;;;;;;;;;;21.80;44.20;;;;;;486809;245;1199;-74
2022/09/24 02:21:48;;;;;;;;;;;21.80;44.20;;;;;;486888;244;1107;-74
2022/09/24 02:23:49;;;;;;;;;;;21.80;44.10;;;;;;486872;245;1130;-74
2022/09/24 02:25:52;;;;;;;;;;;21.80;44.10;;;;;;486862;245;1140;-74
2022/09/24 02:27:52;;;;;;;;;;;21.80;44.20;;;;;;486873;245;1531;-74
2022/09/24 02:29:54;;;;;;;;;;;21.80;44.10;;;;;;486779;245;1191;-74
2022/09/24 02:31:55;;;;;;;;;;;21.80;43.90;;;;;;486775;245;1269;-74
2022/09/24 02:36:16;;;;;;;;;;;21.80;43.90;;;;;;486885;245;1186;-74
2022/09/24 02:38:17;;;;;;;;;;;21.80;43.90;;;;;;486861;244;1155;-74
2022/09/24 02:40:18;;;;;;;;;;;21.80;43.90;;;;;;486855;245;1117;-74
2022/09/24 02:42:20;;;;;;;;;;;21.80;43.90;;;;;;486788;244;1195;-74
2022/09/24 02:44:21;;;;;;;;;;;21.70;43.80;;;;;;486794;245;1448;-74
2022/09/24 02:46:23;;;;;;;;;;;21.70;43.90;;;;;;486837;245;1192;-74
2022/09/24 02:48:24;;;;;;;;;;;21.70;44.00;;;;;;486897;245;1132;-74
2022/09/24 02:50:25;;;;;;;;;;;21.70;44.10;;;;;;486893;244;1158;-74
2022/09/24 02:52:26;;;;;;;;;;;21.70;44.10;;;;;;486821;245;1178;-74
2022/09/24 02:54:28;;;;;;;;;;;21.70;44.10;;;;;;486726;245;2190;-74
2022/09/24 02:56:29;;;;;;;;;;;21.70;44.00;;;;;;486870;244;1170;-74
2022/09/24 02:58:30;;;;;;;;;;;21.60;44.00;;;;;;486715;245;1170;-74
2022/09/24 03:00:32;;;;;;;;;;;21.60;44.10;;;;;;486781;244;1296;-74
2022/09/24 03:02:33;;;;;;;;;;;21.70;44.00;;;;;;486904;245;1193;-74
2022/09/24 03:04:34;;;;;;;;;;;21.70;43.90;;;;;;486802;244;1173;-74
2022/09/24 03:06:36;;;;;;;;;;;21.70;43.90;;;;;;486816;245;1210;-74
2022/09/24 03:08:37;;;;;;;;;;;21.70;43.90;;;;;;486900;245;1044;-74
2022/09/24 03:10:38;;;;;;;;;;;21.70;43.90;;;;;;486896;245;1150;-74
2022/09/24 03:12:41;;;;;;;;;;;21.70;43.90;;;;;;487011;244;1170;-74
2022/09/24 03:14:41;;;;;;;;;;;21.70;43.80;;;;;;486760;245;2178;-74
2022/09/24 03:16:42;;;;;;;;;;;21.70;43.80;;;;;;486824;245;1318;-74
2022/09/24 03:18:44;;;;;;;;;;;21.70;43.80;;;;;;486880;244;1154;-74
2022/09/24 03:20:45;;;;;;;;;;;21.70;43.80;;;;;;486856;245;1166;-74
2022/09/24 03:22:46;;;;;;;;;;;21.60;43.90;;;;;;486929;244;1130;-74
2022/09/24 03:24:48;;;;;;;;;;;21.70;43.90;;;;;;487148;244;1252;-74
2022/09/24 03:26:49;;;;;;;;;;;21.60;43.90;;;;;;486783;245;1265;-74
2022/09/24 03:28:51;;;;;;;;;;;21.60;44.00;;;;;;486839;244;1149;-74
2022/09/24 03:31:01;;;;;;;;;;;21.50;44.00;;;;;;486888;245;1157;-74
2022/09/24 03:33:02;;;;;;;;;;;21.50;44.00;;;;;;486902;244;1158;-74
2022/09/24 03:35:04;;;;;;;;;;;21.60;43.90;;;;;;486835;245;2198;-74
2022/09/24 03:37:05;;;;;;;;;;;21.70;43.90;;;;;;486848;244;1568;-74
2022/09/24 03:39:06;;;;;;;;;;;21.70;43.90;;;;;;486861;245;1308;-74
2022/09/24 03:41:08;;;;;;;;;;;21.60;43.90;;;;;;486973;244;1200;-74
2022/09/24 03:43:09;;;;;;;;;;;21.60;44.00;;;;;;486887;245;1149;-74
2022/09/24 03:45:10;;;;;;;;;;;21.60;43.90;;;;;;486878;244;1145;-74
2022/09/24 03:47:12;;;;;;;;;;;21.70;43.90;;;;;;486857;245;1164;-74
2022/09/24 03:49:13;;;;;;;;;;;21.60;43.80;;;;;;487053;244;1170;-74
2022/09/24 03:51:14;;;;;;;;;;;21.70;43.90;;;;;;486867;245;1245;-74
2022/09/24 03:53:16;;;;;;;;;;;21.60;44.00;;;;;;486861;244;1257;-74
2022/09/24 03:55:17;;;;;;;;;;;21.60;44.00;;;;;;486854;245;2120;-74
2022/09/24 03:57:18;;;;;;;;;;;21.70;44.00;;;;;;486843;245;1166;-74
2022/09/24 03:59:20;;;;;;;;;;;21.60;43.90;;;;;;486922;244;1230;-74
2022/09/24 04:01:21;;;;;;;;;;;21.70;43.90;;;;;;486841;245;1233;-74
2022/09/24 04:03:22;;;;;;;;;;;21.70;43.90;;;;;;486808;245;1832;-74
2022/09/24 04:05:23;;;;;;;;;;;21.70;43.90;;;;;;486866;245;1239;-74
2022/09/24 04:07:25;;;;;;;;;;;21.70;43.90;;;;;;486938;244;1196;-74
2022/09/24 04:09:26;;;;;;;;;;;21.70;43.80;;;;;;486864;245;1157;-74
2022/09/24 04:11:27;;;;;;;;;;;21.70;43.80;;;;;;487031;244;1191;-74
2022/09/24 04:13:29;;;;;;;;;;;21.70;43.90;;;;;;486837;245;1194;-74
2022/09/24 04:15:31;;;;;;;;;;;21.70;44.00;;;;;;486791;245;2226;-74
2022/09/24 04:17:32;;;;;;;;;;;21.70;44.00;;;;;;486887;244;1408;-74
2022/09/24 04:19:33;;;;;;;;;;;21.70;44.00;;;;;;486869;244;1082;-74
2022/09/24 04:21:34;;;;;;;;;;;21.60;44.00;;;;;;486883;245;1072;-74
2022/09/24 04:23:35;;;;;;;;;;;21.70;44.30;;;;;;486835;245;1109;-74
2022/09/24 04:25:39;;;;;;;;;;;21.70;44.30;;;;;;486926;244;1068;-74
2022/09/24 04:27:40;;;;;;;;;;;21.60;44.40;;;;;;486701;245;1492;-74
2022/09/24 04:29:39;;;;;;;;;;;21.60;44.40;;;;;;486888;244;1523;-74
2022/09/24 04:31:41;;;;;;;;;;;21.60;44.50;;;;;;486870;244;1124;-74
2022/09/24 04:33:42;;;;;;;;;;;21.70;44.40;;;;;;486850;245;2163;-74
2022/09/24 04:35:43;;;;;;;;;;;21.60;44.50;;;;;;486828;245;1163;-74
2022/09/24 04:37:45;;;;;;;;;;;21.60;44.50;;;;;;487025;244;1131;-74
2022/09/24 04:39:46;;;;;;;;;;;21.60;44.40;;;;;;486856;244;1266;-74
2022/09/24 04:41:47;;;;;;;;;;;21.60;44.40;;;;;;486825;245;1110;-74
2022/09/24 04:43:50;;;;;;;;;;;21.70;44.40;;;;;;486830;244;1160;-74
2022/09/24 04:45:50;;;;;;;;;;;21.70;44.40;;;;;;486771;245;1476;-74
2022/09/24 04:47:56;;;;;;;;;;;21.70;44.40;;;;;;486942;244;1125;-74
2022/09/24 04:49:53;;;;;;;;;;;21.70;44.30;;;;;;486543;245;1419;-74
2022/09/24 04:51:57;;;;;;;;;;;21.70;44.40;;;;;;486818;245;1066;-74
2022/09/24 04:53:57;;;;;;;;;;;21.70;44.40;;;;;;486832;245;2177;-74
2022/09/24 04:55:58;;;;;;;;;;;21.70;44.40;;;;;;486869;244;1237;-74
2022/09/24 04:57:59;;;;;;;;;;;21.70;44.40;;;;;;486887;245;1394;-74
2022/09/24 05:00:00;;;;;;;;;;;21.60;44.40;;;;;;486979;244;1141;-74
2022/09/24 05:02:02;;;;;;;;;;;21.70;44.40;;;;;;486821;245;1131;-74
2022/09/24 05:04:03;;;;;;;;;;;21.70;44.40;;;;;;486936;245;1164;-74
2022/09/24 05:06:04;;;;;;;;;;;21.60;44.50;;;;;;487063;244;1259;-74
2022/09/24 05:08:06;;;;;;;;;;;21.60;44.60;;;;;;486915;244;1197;-74
2022/09/24 05:10:07;;;;;;;;;;;21.60;44.70;;;;;;486885;245;1185;-74
2022/09/24 05:12:08;;;;;;;;;;;21.60;44.70;;;;;;486858;245;1186;-74
2022/09/24 05:14:10;;;;;;;;;;;21.60;44.60;;;;;;486741;244;2166;-74
2022/09/24 05:16:11;;;;;;;;;;;21.60;44.70;;;;;;486793;245;1129;-74
2022/09/24 05:18:12;;;;;;;;;;;21.60;44.70;;;;;;486799;244;1119;-74
2022/09/24 05:20:15;;;;;;;;;;;21.60;44.70;;;;;;486801;245;1242;-74
2022/09/24 05:22:15;;;;;;;;;;;21.60;44.60;;;;;;486926;245;1477;-74
2022/09/24 05:24:16;;;;;;;;;;;21.60;44.60;;;;;;487139;244;1212;-74
2022/09/24 05:28:39;;;;;;;;;;;21.50;44.70;;;;;;486906;245;1184;-74
2022/09/24 05:30:38;;;;;;;;;;;21.50;44.80;;;;;;486772;245;1447;-74
2022/09/24 05:32:40;;;;;;;;;;;21.50;44.90;;;;;;487068;244;1162;-74
2022/09/24 05:34:41;;;;;;;;;;;21.50;44.90;;;;;;486873;245;2151;-74
2022/09/24 05:36:42;;;;;;;;;;;21.50;44.80;;;;;;486932;244;1139;-74
2022/09/24 05:38:44;;;;;;;;;;;21.50;44.80;;;;;;486897;245;1147;-74
2022/09/24 05:40:48;;;;;;;;;;;21.60;44.80;;;;;;486868;244;1192;-74
2022/09/24 05:42:49;;;;;;;;;;;21.60;44.80;;;;;;486820;245;1091;-74
2022/09/24 05:44:51;;;;;;;;;;;21.60;44.80;;;;;;486962;244;1165;-74
2022/09/24 05:46:52;;;;;;;;;;;21.60;44.70;;;;;;486843;245;1168;-74
2022/09/24 05:48:54;;;;;;;;;;;21.60;44.70;;;;;;486958;244;1252;-75
2022/09/24 05:50:55;;;;;;;;;;;21.60;44.80;;;;;;487021;244;1415;-74
2022/09/24 05:52:56;;;;;;;;;;;21.50;44.90;;;;;;486836;245;1301;-74
2022/09/24 05:54:57;;;;;;;;;;;21.50;45.00;;;;;;486811;245;2198;-74
2022/09/24 05:56:59;;;;;;;;;;;21.60;45.00;;;;;;486892;245;1257;-74
2022/09/24 05:59:00;;;;;;;;;;;21.50;44.90;;;;;;486841;244;1168;-74
2022/09/24 06:01:01;;;;;;;;;;;21.50;45.00;;;;;;487129;244;1106;-74
2022/09/24 06:03:04;;;;;;;;;;;21.50;45.10;;;;;;486784;245;1132;-74
2022/09/24 06:05:04;;;;;;;;;;;21.50;45.10;;;;;;486708;245;1531;-74
2022/09/24 06:07:05;;;;;;;;;;;21.60;45.10;;;;;;486810;245;1191;-74
2022/09/24 06:09:08;;;;;;;;;;;21.50;45.20;;;;;;486970;244;1197;-74
2022/09/24 06:11:09;;;;;;;;;;;21.50;45.30;;;;;;486711;245;1363;-74
2022/09/24 06:13:10;;;;;;;;;;;21.50;45.30;;;;;;486729;245;1494;-74
2022/09/24 06:15:11;;;;;;;;;;;21.50;45.40;;;;;;486783;245;2235;-74
2022/09/24 06:17:12;;;;;;;;;;;21.50;45.40;;;;;;486878;244;1389;-74
2022/09/24 06:19:13;;;;;;;;;;;21.50;45.60;;;;;;486979;244;1187;-74
2022/09/24 06:21:16;;;;;;;;;;;21.50;45.50;;;;;;486930;244;1359;-74
2022/09/24 06:23:16;;;;;;;;;;;21.50;45.60;;;;;;486793;245;1497;-74
2022/09/24 06:25:17;;;;;;;;;;;21.50;45.70;;;;;;487030;244;1214;-74
2022/09/24 06:27:19;;;;;;;;;;;21.50;45.70;;;;;;486992;244;1137;-74
2022/09/24 06:29:20;;;;;;;;;;;21.50;45.70;;;;;;486805;244;1136;-74
2022/09/24 06:31:21;;;;;;;;;;;21.50;45.90;;;;;;486806;245;1217;-74
2022/09/24 06:33:23;;;;;;;;;;;21.50;46.00;;;;;;486920;244;1186;-74
2022/09/24 06:35:24;;;;;;;;;;;21.50;46.00;;;;;;486892;244;2181;-74
2022/09/24 06:37:26;;;;;;;;;;;21.50;46.10;;;;;;486906;245;1221;-74
2022/09/24 06:39:27;;;;;;;;;;;21.40;46.20;;;;;;486978;244;1174;-74
2022/09/24 06:41:28;;;;;;;;;;;21.50;46.10;;;;;;487093;244;1209;-74
2022/09/24 06:43:29;;;;;;;;;;;21.50;46.20;;;;;;487053;244;1250;-74
2022/09/24 06:45:31;;;;;;;;;;;21.50;46.40;;;;;;487026;244;1220;-74
2022/09/24 06:47:32;;;;;;;;;;;21.50;46.40;;;;;;486854;244;1175;-74
2022/09/24 06:49:33;;;;;;;;;;;21.50;46.50;;;;;;486880;245;1279;-74
2022/09/24 06:51:35;;;;;;;;;;;21.40;46.60;;;;;;486887;245;1208;-74
2022/09/24 06:53:37;;;;;;;;;;;21.50;46.70;;;;;;487045;244;1188;-74
2022/09/24 06:55:38;;;;;;;;;;;21.50;46.70;;;;;;486921;245;2193;-74
2022/09/24 06:57:39;;;;;;;;;;;21.50;46.80;;;;;;486925;245;1147;-74
2022/09/24 06:59:40;;;;;;;;;;;21.50;46.80;;;;;;486937;244;1192;-74
2022/09/24 07:01:42;;;;;;;;;;;21.50;46.80;;;;;;486863;245;1218;-74
2022/09/24 07:03:43;;;;;;;;;;;21.50;46.80;;;;;;486977;244;1323;-74
2022/09/24 07:05:44;;;;;;;;;;;21.60;46.90;;;;;;486796;244;1176;-74
2022/09/24 07:07:46;;;;;;;;;;;21.50;46.80;;;;;;486792;245;1291;-74
2022/09/24 07:09:47;;;;;;;;;;;21.60;46.90;;;;;;486821;244;1156;-74
2022/09/24 07:11:48;;;;;;;;;;;21.50;47.10;;;;;;486990;244;1226;-74
2022/09/24 07:13:50;;;;;;;;;;;21.60;47.00;;;;;;486794;245;1103;-74
2022/09/24 07:15:51;;;;;;;;;;;21.60;47.00;;;;;;486818;245;2158;-74
2022/09/24 07:17:53;;;;;;;;;;;21.60;47.10;;;;;;486892;245;1245;-74
2022/09/24 07:19:54;;;;;;;;;;;21.50;47.20;;;;;;486822;245;1220;-74
2022/09/24 07:21:55;;;;;;;;;;;21.60;47.20;;;;;;486857;245;1231;-74
2022/09/24 07:23:57;;;;;;;;;;;21.60;47.20;;;;;;486930;244;1096;-74
2022/09/24 07:25:58;;;;;;;;;;;21.60;47.30;;;;;;486852;244;1115;-74
2022/09/24 07:27:59;;;;;;;;;;;21.50;47.40;;;;;;486890;244;1198;-74
2022/09/24 07:30:01;;;;;;;;;;;21.50;47.40;;;;;;486767;245;1121;-74
2022/09/24 07:32:02;;;;;;;;;;;21.60;47.40;;;;;;486861;245;1165;-74
2022/09/24 07:34:04;;;;;;;;;;;21.60;47.40;;;;;;486788;244;1197;-74
2022/09/24 07:36:06;;;;;;;;;;;21.60;47.40;;;;;;486965;244;2203;-74
2022/09/24 07:38:07;;;;;;;;;;;21.60;47.40;;;;;;486847;245;1171;-74
2022/09/24 07:40:08;;;;;;;;;;;21.50;47.60;;;;;;486813;245;1081;-74
2022/09/24 07:42:10;;;;;;;;;;;21.50;47.70;;;;;;486818;245;1211;-74
2022/09/24 07:44:11;;;;;;;;;;;21.50;47.70;;;;;;486986;244;1183;-74
2022/09/24 07:46:12;;;;;;;;;;;21.50;47.80;;;;;;486830;245;1105;-74
2022/09/24 07:48:14;;;;;;;;;;;21.50;47.80;;;;;;487120;244;1097;-74
2022/09/24 07:50:16;;;;;;;;;;;21.50;47.80;;;;;;486803;245;1454;-74
2022/09/24 07:52:17;;;;;;;;;;;21.50;47.80;;;;;;486889;244;1402;-74
2022/09/24 07:54:17;;;;;;;;;;;21.50;47.80;;;;;;486813;245;1107;-74
2022/09/24 07:56:19;;;;;;;;;;;21.50;47.80;;;;;;486823;245;2166;-74
2022/09/24 07:58:20;;;;;;;;;;;21.50;47.80;;;;;;486938;244;1161;-74
2022/09/24 08:00:22;;;;;;;;;;;21.50;48.00;;;;;;486855;244;1090;-74
2022/09/24 08:02:23;;;;;;;;;;;21.40;48.10;;;;;;486859;245;1121;-74
2022/09/24 08:04:24;;;;;;;;;;;21.50;48.10;;;;;;486915;245;1457;-74
2022/09/24 08:06:26;;;;;;;;;;;21.40;48.10;;;;;;486887;245;1132;-74
2022/09/24 08:08:27;;;;;;;;;;;21.40;48.20;;;;;;486846;245;1146;-74
2022/09/24 08:10:28;;;;;;;;;;;21.50;48.30;;;;;;486912;244;1195;-74
2022/09/24 08:12:29;;;;;;;;;;;21.40;48.30;;;;;;486842;245;1227;-74
2022/09/24 08:14:31;;;;;;;;;;;21.50;48.20;;;;;;486948;244;1231;-74
2022/09/24 08:16:33;;;;;;;;;;;21.50;48.30;;;;;;486929;245;2206;-75
2022/09/24 08:18:33;;;;;;;;;;;21.50;48.30;;;;;;486762;244;1479;-74
2022/09/24 08:20:35;;;;;;;;;;;21.60;48.40;;;;;;486927;244;1155;-74
2022/09/24 08:22:36;;;;;;;;;;;21.50;48.30;;;;;;486848;244;1339;-74
2022/09/24 08:24:37;;;;;;;;;;;21.60;48.40;;;;;;487058;244;1135;-74
2022/09/24 08:26:39;;;;;;;;;;;21.50;48.50;;;;;;486900;244;1193;-74
2022/09/24 08:28:41;;;;;;;;;;;21.40;48.60;;;;;;486898;244;1149;-74
2022/09/24 08:30:42;;;;;;;;;;;21.40;48.60;;;;;;486902;244;1229;-74
2022/09/24 08:32:43;;;;;;;;;;;21.50;48.70;;;;;;486822;245;1244;-74
2022/09/24 08:34:45;;;;;;;;;;;21.50;48.70;;;;;;486817;244;1139;-74
2022/09/24 08:36:46;;;;;;;;;;;21.50;48.70;;;;;;486801;245;2138;-74
2022/09/24 08:38:47;;;;;;;;;;;21.50;48.70;;;;;;486917;245;1159;-74
2022/09/24 08:40:49;;;;;;;;;;;21.50;48.80;;;;;;486831;245;1134;-74
2022/09/24 08:42:50;;;;;;;;;;;21.50;48.70;;;;;;486784;244;1372;-74
2022/09/24 08:47:22;;;;;;;;;;;21.50;48.80;;;;;;486932;245;1110;-74
2022/09/24 08:49:24;;;;;;;;;;;21.50;48.80;;;;;;486832;245;1093;-74
2022/09/24 08:51:25;;;;;;;;;;;21.50;49.00;;;;;;486831;245;1032;-74
2022/09/24 08:53:26;;;;;;;;;;;21.60;48.90;;;;;;486819;245;1096;-74
2022/09/24 08:55:28;;;;;;;;;;;21.60;48.90;;;;;;486985;244;2198;-74
2022/09/24 08:57:29;;;;;;;;;;;21.60;48.90;;;;;;486900;245;1392;-74
2022/09/24 08:59:30;;;;;;;;;;;21.60;49.00;;;;;;486733;244;1517;-74
2022/09/24 09:01:32;;;;;;;;;;;21.60;49.00;;;;;;486961;244;1344;-74
2022/09/24 09:03:33;;;;;;;;;;;21.60;49.20;;;;;;486875;244;1183;-74
2022/09/24 09:05:34;;;;;;;;;;;21.60;49.10;;;;;;486823;245;1207;-74
2022/09/24 09:07:36;;;;;;;;;;;21.60;49.20;;;;;;486863;244;1206;-74
2022/09/24 09:09:37;;;;;;;;;;;21.60;49.30;;;;;;486804;245;1170;-74
2022/09/24 09:11:38;;;;;;;;;;;21.70;49.30;;;;;;486860;244;1178;-74
2022/09/24 09:13:40;;;;;;;;;;;21.70;49.30;;;;;;486798;244;1162;-74
2022/09/24 09:15:41;;;;;;;;;;;21.60;49.30;;;;;;486890;244;2198;-74
2022/09/24 09:17:44;;;;;;;;;;;21.60;49.60;;;;;;486919;244;1345;-74
2022/09/24 09:19:44;;;;;;;;;;;21.60;49.60;;;;;;486806;245;1420;-74
2022/09/24 09:21:45;;;;;;;;;;;21.70;49.50;;;;;;486854;245;1207;-74
2022/09/24 09:23:46;;;;;;;;;;;21.70;49.50;;;;;;486859;244;1274;-74
2022/09/24 09:25:50;;;;;;;;;;;21.60;49.60;;;;;;486874;245;1215;-74
2022/09/24 09:27:49;;;;;;;;;;;21.60;49.60;;;;;;486851;245;1554;-74
2022/09/24 09:29:51;;;;;;;;;;;21.60;49.70;;;;;;486865;245;1214;-74
2022/09/24 09:31:52;;;;;;;;;;;21.60;49.70;;;;;;486851;244;1153;-74
2022/09/24 09:33:55;;;;;;;;;;;21.60;49.80;;;;;;486862;245;1192;-74
2022/09/24 09:35:55;;;;;;;;;;;21.60;49.70;;;;;;486698;245;2201;-74
2022/09/24 09:37:56;;;;;;;;;;;21.60;49.80;;;;;;487307;244;1195;-74
2022/09/24 09:39:57;;;;;;;;;;;21.60;50.00;;;;;;486930;244;1135;-74
2022/09/24 09:41:59;;;;;;;;;;;21.60;50.00;;;;;;486798;245;1103;-74
2022/09/24 09:44:00;;;;;;;;;;;21.60;50.00;;;;;;486984;244;1155;-74
2022/09/24 09:46:01;;;;;;;;;;;21.60;50.00;;;;;;486835;245;1216;-74
2022/09/24 09:48:03;;;;;;;;;;;21.60;50.00;;;;;;486865;244;1112;-74
2022/09/24 09:50:04;;;;;;;;;;;21.60;50.00;;;;;;486794;245;1256;-74
2022/09/24 09:52:06;;;;;;;;;;;21.60;50.00;;;;;;486869;245;1177;-74
2022/09/24 09:54:07;;;;;;;;;;;21.60;50.20;;;;;;486811;244;1101;-74
2022/09/24 09:56:08;;;;;;;;;;;21.60;50.20;;;;;;486791;245;2214;-74
2022/09/24 09:58:10;;;;;;;;;;;21.60;50.20;;;;;;486915;244;1156;-74
2022/09/24 10:00:11;;;;;;;;;;;21.70;50.20;;;;;;486743;245;1572;-74
2022/09/24 10:02:12;;;;;;;;;;;21.70;50.20;;;;;;486756;245;1445;-74
2022/09/24 10:04:14;;;;;;;;;;;21.60;50.10;;;;;;486906;244;1194;-74
2022/09/24 10:06:15;;;;;;;;;;;21.60;50.20;;;;;;486980;244;1296;-74
2022/09/24 10:08:16;;;;;;;;;;;21.70;50.10;;;;;;486784;244;1250;-74
2022/09/24 10:10:18;;;;;;;;;;;21.70;50.10;;;;;;486821;245;1136;-74
2022/09/24 10:12:20;;;;;;;;;;;21.60;50.20;;;;;;486796;244;1206;-74
2022/09/24 10:14:20;;;;;;;;;;;21.70;50.30;;;;;;486750;245;1422;-74
2022/09/24 10:16:22;;;;;;;;;;;21.60;50.30;;;;;;486923;244;2159;-74
2022/09/24 10:18:23;;;;;;;;;;;21.60;50.40;;;;;;486928;244;1148;-74
2022/09/24 10:20:26;;;;;;;;;;;21.60;50.40;;;;;;486857;245;1208;-74
2022/09/24 10:22:27;;;;;;;;;;;21.60;50.50;;;;;;486850;245;1445;-74
2022/09/24 10:24:28;;;;;;;;;;;21.70;50.40;;;;;;486848;244;1205;-74
2022/09/24 10:26:29;;;;;;;;;;;21.60;50.40;;;;;;486885;244;1105;-74
2022/09/24 10:30:50;;;;;;;;;;;21.60;50.60;;;;;;486974;245;1100;-74
2022/09/24 10:32:51;;;;;;;;;;;21.60;50.50;;;;;;486808;245;1246;-74
2022/09/24 10:34:52;;;;;;;;;;;21.60;50.40;;;;;;486883;244;1132;-74
2022/09/24 10:36:54;;;;;;;;;;;21.60;50.60;;;;;;486736;245;2197;-74
2022/09/24 10:38:55;;;;;;;;;;;21.60;50.60;;;;;;486936;244;1242;-74
2022/09/24 10:41:00;;;;;;;;;;;21.60;50.50;;;;;;486838;245;1159;-74
2022/09/24 10:42:58;;;;;;;;;;;21.70;50.50;;;;;;486678;245;1390;-74
2022/09/24 10:44:59;;;;;;;;;;;21.70;50.60;;;;;;486835;244;1173;-74
2022/09/24 10:47:01;;;;;;;;;;;21.60;50.50;;;;;;486848;244;1245;-74
2022/09/24 10:49:02;;;;;;;;;;;21.70;50.60;;;;;;486861;245;1168;-74
2022/09/24 10:51:03;;;;;;;;;;;21.70;50.60;;;;;;486862;244;1237;-74
2022/09/24 10:53:05;;;;;;;;;;;21.70;50.60;;;;;;486884;244;1145;-74
2022/09/24 10:55:06;;;;;;;;;;;21.60;50.70;;;;;;486797;245;1208;-74
2022/09/24 10:57:07;;;;;;;;;;;21.70;50.70;;;;;;486985;244;2275;-74
2022/09/24 10:59:09;;;;;;;;;;;21.70;50.80;;;;;;486781;245;1192;-74
2022/09/24 11:01:10;;;;;;;;;;;21.60;50.80;;;;;;486819;244;1178;-74
2022/09/24 11:03:11;;;;;;;;;;;21.60;50.80;;;;;;486825;245;1396;-74
2022/09/24 11:05:13;;;;;;;;;;;21.70;50.80;;;;;;487049;244;1186;-74
2022/09/24 11:07:14;;;;;;;;;;;21.70;50.70;;;;;;486835;245;1139;-74
2022/09/24 11:09:15;;;;;;;;;;;21.70;50.70;;;;;;486840;244;1480;-74
2022/09/24 11:11:17;;;;;;;;;;;21.70;50.70;;;;;;486939;244;1152;-75
2022/09/24 11:13:19;;;;;;;;;;;21.60;50.80;;;;;;486830;245;1259;-74
2022/09/24 11:15:20;;;;;;;;;;;21.60;50.90;;;;;;486893;244;1383;-74
2022/09/24 11:17:21;;;;;;;;;;;21.70;50.90;;;;;;486762;245;2207;-74
2022/09/24 11:19:22;;;;;;;;;;;21.70;50.90;;;;;;486810;245;1147;-74
2022/09/24 11:21:24;;;;;;;;;;;21.70;50.80;;;;;;486896;244;1131;-74
2022/09/24 11:23:25;;;;;;;;;;;21.80;50.70;;;;;;486947;244;1338;-74
2022/09/24 11:25:26;;;;;;;;;;;21.80;50.60;;;;;;486908;244;1085;-74
2022/09/24 11:27:27;;;;;;;;;;;21.70;50.60;;;;;;486922;244;1063;-74
2022/09/24 11:29:29;;;;;;;;;;;21.80;50.50;;;;;;486826;245;1043;-74
2022/09/24 11:31:30;;;;;;;;;;;21.80;50.50;;;;;;486911;244;1115;-74
2022/09/24 11:33:32;;;;;;;;;;;21.80;50.70;;;;;;486827;245;1179;-74
2022/09/24 11:35:34;;;;;;;;;;;21.80;50.70;;;;;;486803;245;1155;-74
2022/09/24 11:37:37;;;;;;;;;;;21.80;50.60;;;;;;487062;244;2198;-74
2022/09/24 11:39:38;;;;;;;;;;;21.80;50.80;;;;;;486897;245;1517;-74
2022/09/24 11:41:39;;;;;;;;;;;21.90;50.60;;;;;;486965;244;1095;-74
2022/09/24 11:43:41;;;;;;;;;;;21.90;50.50;;;;;;486925;244;1145;-74
2022/09/24 11:45:42;;;;;;;;;;;21.80;50.50;;;;;;486885;244;1337;-74
2022/09/24 11:47:43;;;;;;;;;;;21.80;50.50;;;;;;486835;245;1216;-74
2022/09/24 11:49:45;;;;;;;;;;;21.80;50.60;;;;;;486955;244;1177;-74
2022/09/24 11:51:46;;;;;;;;;;;21.70;50.80;;;;;;486820;244;1320;-74
2022/09/24 11:53:48;;;;;;;;;;;21.80;50.80;;;;;;486895;244;1120;-74
2022/09/24 11:55:50;;;;;;;;;;;21.80;50.80;;;;;;486841;245;1004;-74
2022/09/24 11:57:50;;;;;;;;;;;21.80;50.80;;;;;;486982;245;2190;-74
2022/09/24 11:59:52;;;;;;;;;;;21.80;50.80;;;;;;486904;245;1188;-74
2022/09/24 12:01:53;;;;;;;;;;;21.80;50.80;;;;;;486854;245;1150;-74
2022/09/24 12:03:55;;;;;;;;;;;21.80;50.90;;;;;;486890;245;1217;-74
2022/09/24 12:05:56;;;;;;;;;;;21.80;50.80;;;;;;486952;245;1084;-74
2022/09/24 12:07:57;;;;;;;;;;;21.80;50.80;;;;;;486849;245;1133;-74
2022/09/24 12:09:58;;;;;;;;;;;21.80;50.90;;;;;;486781;244;1445;-74